createdAt,value
2022-10-14T00:04:30.219Z,12.40
2022-10-14T00:10:31.827Z,12.40
2022-10-14T00:16:35.666Z,12.40
2022-10-14T00:22:37.332Z,12.50
2022-10-14T00:28:39.021Z,12.50
2022-10-14T00:34:41.066Z,12.50
2022-10-14T00:40:42.757Z,12.50
2022-10-14T00:46:48.427Z,12.50
2022-10-14T00:52:50.189Z,12.50
2022-10-14T00:58:52.413Z,12.50
2022-10-14T01:04:54.076Z,12.60
2022-10-14T01:11:05.653Z,12.50
2022-10-14T01:17:18.752Z,12.50
2022-10-14T01:23:29.237Z,12.40
2022-10-14T01:29:46.599Z,12.50
2022-10-14T01:35:52.131Z,12.40
2022-10-14T01:41:56.822Z,12.40
2022-10-14T01:47:58.766Z,12.40
2022-10-14T01:54:03.631Z,12.30
2022-10-14T02:00:05.918Z,12.30
2022-10-14T02:06:11.593Z,12.30
2022-10-14T02:12:27.098Z,12.30
2022-10-14T02:18:28.747Z,12.30
2022-10-14T02:24:50.716Z,12.30
2022-10-14T02:30:54.312Z,12.20
2022-10-14T02:36:56.461Z,12.20
2022-10-14T02:42:58.169Z,12.20
2022-10-14T02:48:59.864Z,12.20
2022-10-14T02:55:01.519Z,12.30
2022-10-14T03:01:03.116Z,12.30
2022-10-14T03:07:04.789Z,12.30
2022-10-14T03:13:06.574Z,12.30
2022-10-14T03:19:08.230Z,12.30
2022-10-14T03:25:10.035Z,12.30
2022-10-14T03:31:11.745Z,12.30
2022-10-14T03:37:13.512Z,12.30
2022-10-14T03:43:15.208Z,12.30
2022-10-14T03:49:16.904Z,12.30
2022-10-14T03:55:18.568Z,12.30
2022-10-14T04:01:20.214Z,12.20
2022-10-14T04:07:21.947Z,12.20
2022-10-14T04:13:23.668Z,12.10
2022-10-14T04:19:25.483Z,12.10
2022-10-14T04:25:27.290Z,12.10
2022-10-14T04:31:28.893Z,12.20
2022-10-14T04:37:30.537Z,12.10
2022-10-14T04:43:32.352Z,12.20
2022-10-14T04:49:34.041Z,12.20
2022-10-14T04:55:35.748Z,12.20
2022-10-14T05:01:37.707Z,12.20
2022-10-14T05:07:39.375Z,12.20
2022-10-14T05:13:41.120Z,12.20
2022-10-14T05:19:42.752Z,12.10
2022-10-14T05:25:44.451Z,12.20
2022-10-14T05:31:46.379Z,12.20
2022-10-14T05:37:48.274Z,12.10
2022-10-14T05:43:50.131Z,12.10
2022-10-14T05:49:51.772Z,12.10
2022-10-14T05:55:53.496Z,12.20
2022-10-14T06:01:55.493Z,12.20
2022-10-14T06:07:57.225Z,12.10
2022-10-14T06:13:59.029Z,12.20
2022-10-14T06:20:00.706Z,12.10
2022-10-14T06:26:06.175Z,12.10
2022-10-14T06:32:08.866Z,12.20
2022-10-14T06:38:10.793Z,12.20
2022-10-14T06:44:13.773Z,12.30
2022-10-14T06:50:15.631Z,12.30
2022-10-14T06:56:17.476Z,12.30
2022-10-14T07:02:19.743Z,12.20
2022-10-14T07:08:21.593Z,12.30
2022-10-14T07:14:23.433Z,12.30
2022-10-14T07:20:25.080Z,12.30
2022-10-14T07:26:26.741Z,12.40
2022-10-14T07:32:28.565Z,12.30
2022-10-14T07:38:30.429Z,12.30
2022-10-14T07:44:32.062Z,12.30
2022-10-14T07:50:33.674Z,12.30
2022-10-14T07:56:35.874Z,12.40
2022-10-14T08:02:37.537Z,12.50
2022-10-14T08:08:39.644Z,12.50
2022-10-14T08:14:41.392Z,12.60
2022-10-14T08:20:43.068Z,12.70
2022-10-14T08:26:50.689Z,13.00
2022-10-14T08:32:52.514Z,13.20
2022-10-14T08:38:54.537Z,13.40
2022-10-14T08:45:10.285Z,13.30
2022-10-14T08:51:15.676Z,13.40
2022-10-14T08:57:21.556Z,13.50
2022-10-14T09:03:24.742Z,13.50
2022-10-14T09:09:30.633Z,13.60
2022-10-14T09:15:38.619Z,13.70
2022-10-14T09:21:53.926Z,13.90
2022-10-14T09:27:55.668Z,14.00
2022-10-14T09:33:57.361Z,14.10
2022-10-14T09:40:10.113Z,14.10
2022-10-14T09:46:11.932Z,14.30
2022-10-14T09:52:23.542Z,14.40
2022-10-14T09:58:45.216Z,14.50
2022-10-14T10:04:47.863Z,14.50
2022-10-14T10:11:03.849Z,14.40
2022-10-14T10:17:08.727Z,14.40
2022-10-14T10:23:21.401Z,14.60
2022-10-14T10:29:32.420Z,15.00
2022-10-14T10:35:40.141Z,15.00
2022-10-14T10:41:41.924Z,15.10
2022-10-14T10:47:47.537Z,15.10
2022-10-14T10:53:49.770Z,15.10
2022-10-14T10:59:51.478Z,15.00
2022-10-14T11:06:07.304Z,14.90
2022-10-14T11:12:15.639Z,15.00
2022-10-14T11:18:30.643Z,15.40
2022-10-14T11:24:42.768Z,15.60
2022-10-14T11:30:47.556Z,15.70
2022-10-14T11:36:55.473Z,16.00
2022-10-14T11:43:23.547Z,16.10
2022-10-14T11:49:27.784Z,16.00
2022-10-14T11:55:33.259Z,15.80
2022-10-14T12:01:39.594Z,15.90
2022-10-14T12:07:44.490Z,15.80
2022-10-14T12:13:48.446Z,15.80
2022-10-14T12:19:51.547Z,15.80
2022-10-14T12:25:57.500Z,15.90
2022-10-14T12:32:19.675Z,15.90
2022-10-14T12:38:22.107Z,15.90
2022-10-14T12:44:27.458Z,16.00
2022-10-14T12:50:36.419Z,16.20
2022-10-14T12:56:40.355Z,16.10
2022-10-14T13:02:46.845Z,15.90
2022-10-14T13:09:07.328Z,15.90
2022-10-14T13:15:27.759Z,16.00
2022-10-14T13:21:32.196Z,16.00
2022-10-14T13:27:42.757Z,16.00
2022-10-14T13:33:49.807Z,16.00
2022-10-14T13:39:51.517Z,15.90
2022-10-14T13:45:56.095Z,15.90
2022-10-14T13:52:04.506Z,15.90
2022-10-14T13:58:14.037Z,15.90
2022-10-14T14:04:34.405Z,16.00
2022-10-14T14:10:42.542Z,16.00
2022-10-14T14:16:51.355Z,15.90
2022-10-14T14:22:53.516Z,15.90
2022-10-14T14:28:55.269Z,15.90
2022-10-14T14:34:57.132Z,15.90
2022-10-14T14:41:04.773Z,15.90
2022-10-14T14:47:06.698Z,15.90
2022-10-14T14:53:22.602Z,15.90
2022-10-14T14:59:35.711Z,15.90
2022-10-14T15:05:37.610Z,15.90
2022-10-14T15:12:08.570Z,15.90
2022-10-14T15:18:30.629Z,15.70
2022-10-14T15:24:32.250Z,15.70
2022-10-14T15:30:37.610Z,15.60
2022-10-14T15:36:39.425Z,15.60
2022-10-14T15:42:41.639Z,15.50
2022-10-14T15:48:48.199Z,15.30
2022-10-14T15:54:50.869Z,15.20
2022-10-14T16:00:53.873Z,15.20
2022-10-14T16:06:56.164Z,15.10
2022-10-14T16:12:58.124Z,15.10
2022-10-14T16:19:02.594Z,14.80
2022-10-14T16:25:04.598Z,14.60
2022-10-14T16:31:06.531Z,14.40
2022-10-14T16:37:09.242Z,14.30
2022-10-14T16:43:11.248Z,14.20
2022-10-14T16:49:14.700Z,14.00
2022-10-14T16:55:17.362Z,14.00
2022-10-14T17:01:19.854Z,14.00
2022-10-14T17:07:21.629Z,14.00
2022-10-14T17:13:23.424Z,13.90
2022-10-14T17:19:25.123Z,13.90
2022-10-14T17:25:26.880Z,14.00
2022-10-14T17:31:29.049Z,13.90
2022-10-14T17:37:31.195Z,13.90
2022-10-14T17:43:33.757Z,13.90
2022-10-14T17:49:36.457Z,13.90
2022-10-14T17:55:38.270Z,13.90
2022-10-14T18:08:01.973Z,13.90
2022-10-14T18:14:06.261Z,13.90
2022-10-14T18:20:08.276Z,13.90
2022-10-14T18:26:17.654Z,13.90
2022-10-14T18:32:19.564Z,13.90
2022-10-14T18:38:21.295Z,13.90
2022-10-14T18:44:23.711Z,13.90
2022-10-14T18:50:25.351Z,13.90
2022-10-14T18:56:28.501Z,13.90
2022-10-14T19:02:34.417Z,13.80
2022-10-14T19:08:39.953Z,13.80
2022-10-14T19:14:41.791Z,13.80
2022-10-14T19:20:45.441Z,13.80
2022-10-14T19:26:49.083Z,13.80
2022-10-14T19:32:50.811Z,13.80
2022-10-14T19:38:57.528Z,13.80
2022-10-14T19:44:59.237Z,13.80
2022-10-14T19:51:06.118Z,13.80
2022-10-14T19:57:08.986Z,13.80
2022-10-14T20:03:12.868Z,13.80
2022-10-14T20:09:14.940Z,13.80
2022-10-14T20:15:16.895Z,13.80
2022-10-14T20:21:18.726Z,13.90
2022-10-14T20:27:20.879Z,13.90
2022-10-14T20:33:22.847Z,13.90
2022-10-14T20:39:24.669Z,13.90
2022-10-14T20:45:26.330Z,14.00
2022-10-14T20:51:28.076Z,14.00
2022-10-14T20:57:29.934Z,14.00
2022-10-14T21:03:31.944Z,14.10
2022-10-14T21:09:33.858Z,14.10
2022-10-14T21:15:35.700Z,14.10
2022-10-14T21:21:40.804Z,14.10
2022-10-14T21:27:42.660Z,14.00
2022-10-14T21:33:44.419Z,14.10
2022-10-14T21:39:46.144Z,14.10
2022-10-14T21:45:47.900Z,14.10
2022-10-14T21:51:49.576Z,14.10
2022-10-14T21:57:52.633Z,14.00
2022-10-14T22:03:55.193Z,14.00
2022-10-14T22:09:56.944Z,13.90
2022-10-14T22:15:58.758Z,13.90
2022-10-14T22:22:01.387Z,13.90
2022-10-14T22:28:03.176Z,13.80
2022-10-14T22:34:06.198Z,13.70
2022-10-14T22:40:08.059Z,13.70
2022-10-14T22:46:13.650Z,13.60
2022-10-14T22:52:15.550Z,13.70
2022-10-14T22:58:17.201Z,13.70
2022-10-14T23:04:19.233Z,13.60
2022-10-14T23:10:21.357Z,13.50
2022-10-14T23:16:24.856Z,13.50
2022-10-14T23:22:26.495Z,13.40
2022-10-14T23:28:28.270Z,13.30
2022-10-14T23:34:30.497Z,13.10
2022-10-14T23:40:33.590Z,13.10
2022-10-14T23:46:35.269Z,13.10
2022-10-14T23:52:37.150Z,13.00
2022-10-14T23:58:39.034Z,12.90
